sensor_id;sensor_type;location;lat;lon;timestamp;temperature;humidity
57636;DHT22;43465;50.728;4.160;2022-08-19T00:02:12;21.10;99.90
57636;DHT22;43465;50.728;4.160;2022-08-19T00:04:37;21.20;99.90
57636;DHT22;43465;50.728;4.160;2022-08-19T00:07:04;21.20;99.90
57636;DHT22;43465;50.728;4.160;2022-08-19T00:09:30;21.10;99.90
57636;DHT22;43465;50.728;4.160;2022-08-19T00:11:57;21.10;99.90
57636;DHT22;43465;50.728;4.160;2022-08-19T00:14:24;21.20;99.90
57636;DHT22;43465;50.728;4.160;2022-08-19T00:16:51;21.30;99.90
57636;DHT22;43465;50.728;4.160;2022-08-19T00:19:20;21.30;99.90
57636;DHT22;43465;50.728;4.160;2022-08-19T00:21:46;21.30;99.90
57636;DHT22;43465;50.728;4.160;2022-08-19T00:24:13;21.30;99.90
57636;DHT22;43465;50.728;4.160;2022-08-19T00:26:40;21.30;99.90
57636;DHT22;43465;50.728;4.160;2022-08-19T00:29:09;21.20;99.90
57636;DHT22;43465;50.728;4.160;2022-08-19T00:31:36;21.10;99.90
57636;DHT22;43465;50.728;4.160;2022-08-19T00:34:02;21.10;99.90
57636;DHT22;43465;50.728;4.160;2022-08-19T00:36:28;21.10;99.90
57636;DHT22;43465;50.728;4.160;2022-08-19T00:38:54;21.10;99.90
57636;DHT22;43465;50.728;4.160;2022-08-19T00:41:23;21.10;99.90
57636;DHT22;43465;50.728;4.160;2022-08-19T00:46:37;21.10;99.90
57636;DHT22;43465;50.728;4.160;2022-08-19T00:49:10;21.10;99.90
57636;DHT22;43465;50.728;4.160;2022-08-19T00:51:37;21.10;99.90
57636;DHT22;43465;50.728;4.160;2022-08-19T00:54:03;21.10;99.90
57636;DHT22;43465;50.728;4.160;2022-08-19T00:56:29;21.10;99.90
57636;DHT22;43465;50.728;4.160;2022-08-19T00:58:57;21.10;99.90
57636;DHT22;43465;50.728;4.160;2022-08-19T01:01:23;21.10;99.90
57636;DHT22;43465;50.728;4.160;2022-08-19T01:03:49;21.00;99.90
57636;DHT22;43465;50.728;4.160;2022-08-19T01:06:15;21.00;99.90
57636;DHT22;43465;50.728;4.160;2022-08-19T01:08:41;20.90;99.90
57636;DHT22;43465;50.728;4.160;2022-08-19T01:11:08;20.80;99.90
57636;DHT22;43465;50.728;4.160;2022-08-19T01:13:34;20.80;99.90
57636;DHT22;43465;50.728;4.160;2022-08-19T01:16:04;20.70;99.90
57636;DHT22;43465;50.728;4.160;2022-08-19T01:18:32;20.60;99.90
57636;DHT22;43465;50.728;4.160;2022-08-19T01:21:03;20.60;99.90
57636;DHT22;43465;50.728;4.160;2022-08-19T01:23:31;20.60;99.90
57636;DHT22;43465;50.728;4.160;2022-08-19T01:26:13;20.60;99.90
57636;DHT22;43465;50.728;4.160;2022-08-19T01:28:39;20.50;99.90
57636;DHT22;43465;50.728;4.160;2022-08-19T01:31:07;20.50;99.90
57636;DHT22;43465;50.728;4.160;2022-08-19T01:33:33;20.50;99.90
57636;DHT22;43465;50.728;4.160;2022-08-19T01:36:11;20.50;99.90
57636;DHT22;43465;50.728;4.160;2022-08-19T01:38:40;20.50;99.90
57636;DHT22;43465;50.728;4.160;2022-08-19T01:41:08;20.40;99.90
57636;DHT22;43465;50.728;4.160;2022-08-19T01:43:34;20.50;99.90
57636;DHT22;43465;50.728;4.160;2022-08-19T01:46:01;20.40;99.90
57636;DHT22;43465;50.728;4.160;2022-08-19T01:48:27;20.40;99.90
57636;DHT22;43465;50.728;4.160;2022-08-19T01:50:54;20.40;99.90
57636;DHT22;43465;50.728;4.160;2022-08-19T01:53:20;20.30;99.90
57636;DHT22;43465;50.728;4.160;2022-08-19T01:55:45;20.30;99.90
57636;DHT22;43465;50.728;4.160;2022-08-19T01:58:16;20.30;99.90
57636;DHT22;43465;50.728;4.160;2022-08-19T02:00:44;20.30;99.90
57636;DHT22;43465;50.728;4.160;2022-08-19T02:03:10;20.20;99.90
57636;DHT22;43465;50.728;4.160;2022-08-19T02:05:37;20.10;99.90
57636;DHT22;43465;50.728;4.160;2022-08-19T02:08:04;20.10;99.90
57636;DHT22;43465;50.728;4.160;2022-08-19T02:10:29;20.00;99.90
57636;DHT22;43465;50.728;4.160;2022-08-19T02:12:55;20.00;99.90
57636;DHT22;43465;50.728;4.160;2022-08-19T02:15:21;20.00;99.90
57636;DHT22;43465;50.728;4.160;2022-08-19T02:17:47;20.00;99.90
57636;DHT22;43465;50.728;4.160;2022-08-19T02:20:14;20.00;99.90
57636;DHT22;43465;50.728;4.160;2022-08-19T02:22:40;20.00;99.90
57636;DHT22;43465;50.728;4.160;2022-08-19T02:25:13;19.90;99.90
57636;DHT22;43465;50.728;4.160;2022-08-19T02:27:40;19.90;99.90
57636;DHT22;43465;50.728;4.160;2022-08-19T02:30:08;19.90;99.90
57636;DHT22;43465;50.728;4.160;2022-08-19T02:32:34;19.90;99.90
57636;DHT22;43465;50.728;4.160;2022-08-19T02:35:00;19.90;99.90
57636;DHT22;43465;50.728;4.160;2022-08-19T02:37:26;19.90;99.90
57636;DHT22;43465;50.728;4.160;2022-08-19T02:40:12;19.90;99.90
57636;DHT22;43465;50.728;4.160;2022-08-19T02:42:38;19.80;99.90
57636;DHT22;43465;50.728;4.160;2022-08-19T02:45:06;19.70;99.90
57636;DHT22;43465;50.728;4.160;2022-08-19T02:47:33;19.60;99.90
57636;DHT22;43465;50.728;4.160;2022-08-19T02:50:02;19.60;99.90
57636;DHT22;43465;50.728;4.160;2022-08-19T02:52:27;19.50;99.90
57636;DHT22;43465;50.728;4.160;2022-08-19T02:54:53;19.40;99.90
57636;DHT22;43465;50.728;4.160;2022-08-19T02:57:23;19.30;99.90
57636;DHT22;43465;50.728;4.160;2022-08-19T02:59:49;19.20;99.90
57636;DHT22;43465;50.728;4.160;2022-08-19T03:02:15;19.10;99.90
57636;DHT22;43465;50.728;4.160;2022-08-19T03:04:41;18.90;99.90
57636;DHT22;43465;50.728;4.160;2022-08-19T03:07:08;18.80;99.90
57636;DHT22;43465;50.728;4.160;2022-08-19T03:09:37;18.60;99.90
57636;DHT22;43465;50.728;4.160;2022-08-19T03:12:04;18.50;99.90
57636;DHT22;43465;50.728;4.160;2022-08-19T03:14:31;18.50;99.90
57636;DHT22;43465;50.728;4.160;2022-08-19T03:16:57;18.40;99.90
57636;DHT22;43465;50.728;4.160;2022-08-19T03:19:23;18.30;99.90
57636;DHT22;43465;50.728;4.160;2022-08-19T03:21:50;18.20;99.90
57636;DHT22;43465;50.728;4.160;2022-08-19T03:24:17;18.20;99.90
57636;DHT22;43465;50.728;4.160;2022-08-19T03:26:49;18.10;99.90
57636;DHT22;43465;50.728;4.160;2022-08-19T03:29:15;18.10;99.90
57636;DHT22;43465;50.728;4.160;2022-08-19T03:31:43;18.10;99.90
57636;DHT22;43465;50.728;4.160;2022-08-19T03:34:19;18.10;99.90
57636;DHT22;43465;50.728;4.160;2022-08-19T03:36:46;18.10;99.90
57636;DHT22;43465;50.728;4.160;2022-08-19T03:39:11;18.00;99.90
57636;DHT22;43465;50.728;4.160;2022-08-19T03:41:40;18.00;99.90
57636;DHT22;43465;50.728;4.160;2022-08-19T03:44:06;18.00;99.90
57636;DHT22;43465;50.728;4.160;2022-08-19T03:46:34;17.90;99.90
57636;DHT22;43465;50.728;4.160;2022-08-19T03:49:03;17.90;99.90
57636;DHT22;43465;50.728;4.160;2022-08-19T03:51:36;17.90;99.90
57636;DHT22;43465;50.728;4.160;2022-08-19T03:54:05;17.90;99.90
57636;DHT22;43465;50.728;4.160;2022-08-19T03:56:34;17.90;99.90
57636;DHT22;43465;50.728;4.160;2022-08-19T03:59:00;17.90;99.90
57636;DHT22;43465;50.728;4.160;2022-08-19T04:01:28;17.90;99.90
57636;DHT22;43465;50.728;4.160;2022-08-19T04:03:55;17.90;99.90
57636;DHT22;43465;50.728;4.160;2022-08-19T04:06:24;17.90;99.90
57636;DHT22;43465;50.728;4.160;2022-08-19T04:08:51;17.80;99.90
57636;DHT22;43465;50.728;4.160;2022-08-19T04:11:22;17.80;99.90
57636;DHT22;43465;50.728;4.160;2022-08-19T04:13:49;17.60;99.90
57636;DHT22;43465;50.728;4.160;2022-08-19T04:16:17;17.60;99.90
57636;DHT22;43465;50.728;4.160;2022-08-19T04:18:43;17.50;99.90
57636;DHT22;43465;50.728;4.160;2022-08-19T04:21:19;17.40;99.90
57636;DHT22;43465;50.728;4.160;2022-08-19T04:23:44;17.30;99.90
57636;DHT22;43465;50.728;4.160;2022-08-19T04:26:18;17.30;99.90
57636;DHT22;43465;50.728;4.160;2022-08-19T04:28:44;17.30;99.90
57636;DHT22;43465;50.728;4.160;2022-08-19T04:31:20;17.50;99.90
57636;DHT22;43465;50.728;4.160;2022-08-19T04:33:46;17.60;99.90
57636;DHT22;43465;50.728;4.160;2022-08-19T04:36:23;17.70;99.90
57636;DHT22;43465;50.728;4.160;2022-08-19T04:38:52;17.80;99.90
57636;DHT22;43465;50.728;4.160;2022-08-19T04:41:18;17.90;99.90
57636;DHT22;43465;50.728;4.160;2022-08-19T04:44:03;18.00;99.90
57636;DHT22;43465;50.728;4.160;2022-08-19T04:46:29;18.00;99.90
57636;DHT22;43465;50.728;4.160;2022-08-19T04:49:00;18.00;99.90
57636;DHT22;43465;50.728;4.160;2022-08-19T04:51:26;18.10;99.90
57636;DHT22;43465;50.728;4.160;2022-08-19T04:53:52;18.10;99.90
57636;DHT22;43465;50.728;4.160;2022-08-19T04:56:19;18.10;99.90
57636;DHT22;43465;50.728;4.160;2022-08-19T04:58:47;18.10;99.90
57636;DHT22;43465;50.728;4.160;2022-08-19T05:01:18;18.10;99.90
57636;DHT22;43465;50.728;4.160;2022-08-19T05:03:44;18.10;99.90
57636;DHT22;43465;50.728;4.160;2022-08-19T05:06:13;18.10;99.90
57636;DHT22;43465;50.728;4.160;2022-08-19T05:08:40;18.20;99.90
57636;DHT22;43465;50.728;4.160;2022-08-19T05:13:40;18.30;99.90
57636;DHT22;43465;50.728;4.160;2022-08-19T05:16:06;18.30;99.90
57636;DHT22;43465;50.728;4.160;2022-08-19T05:18:32;18.30;99.90
57636;DHT22;43465;50.728;4.160;2022-08-19T05:21:18;18.30;99.90
57636;DHT22;43465;50.728;4.160;2022-08-19T05:24:04;18.20;99.90
57636;DHT22;43465;50.728;4.160;2022-08-19T05:26:37;18.20;99.90
57636;DHT22;43465;50.728;4.160;2022-08-19T05:29:03;18.40;99.90
57636;DHT22;43465;50.728;4.160;2022-08-19T05:31:29;18.40;99.90
57636;DHT22;43465;50.728;4.160;2022-08-19T05:33:55;18.40;99.90
57636;DHT22;43465;50.728;4.160;2022-08-19T05:36:25;18.40;99.90
57636;DHT22;43465;50.728;4.160;2022-08-19T05:38:50;18.60;99.90
57636;DHT22;43465;50.728;4.160;2022-08-19T05:41:18;18.60;99.90
57636;DHT22;43465;50.728;4.160;2022-08-19T05:43:44;18.60;99.90
57636;DHT22;43465;50.728;4.160;2022-08-19T05:46:17;18.60;99.90
57636;DHT22;43465;50.728;4.160;2022-08-19T05:48:43;18.80;99.90
57636;DHT22;43465;50.728;4.160;2022-08-19T05:51:09;18.80;99.90
57636;DHT22;43465;50.728;4.160;2022-08-19T05:53:36;18.80;99.90
57636;DHT22;43465;50.728;4.160;2022-08-19T05:56:10;18.90;99.90
57636;DHT22;43465;50.728;4.160;2022-08-19T05:58:37;19.00;99.90
57636;DHT22;43465;50.728;4.160;2022-08-19T06:01:04;19.00;99.90
57636;DHT22;43465;50.728;4.160;2022-08-19T06:03:32;19.10;99.90
57636;DHT22;43465;50.728;4.160;2022-08-19T06:05:59;19.20;99.90
57636;DHT22;43465;50.728;4.160;2022-08-19T06:08:26;19.20;99.90
57636;DHT22;43465;50.728;4.160;2022-08-19T06:10:52;19.20;99.90
57636;DHT22;43465;50.728;4.160;2022-08-19T06:13:18;19.30;99.90
57636;DHT22;43465;50.728;4.160;2022-08-19T06:15:45;19.40;99.90
57636;DHT22;43465;50.728;4.160;2022-08-19T06:18:12;19.40;99.90
57636;DHT22;43465;50.728;4.160;2022-08-19T06:20:38;19.50;99.90
57636;DHT22;43465;50.728;4.160;2022-08-19T06:23:04;19.60;99.90
57636;DHT22;43465;50.728;4.160;2022-08-19T06:26:11;19.60;99.90
57636;DHT22;43465;50.728;4.160;2022-08-19T06:28:37;19.60;99.90
57636;DHT22;43465;50.728;4.160;2022-08-19T06:31:07;19.70;99.90
57636;DHT22;43465;50.728;4.160;2022-08-19T06:33:33;19.80;99.90
57636;DHT22;43465;50.728;4.160;2022-08-19T06:35:59;19.80;99.90
57636;DHT22;43465;50.728;4.160;2022-08-19T06:38:25;19.80;99.90
57636;DHT22;43465;50.728;4.160;2022-08-19T06:40:50;19.90;99.90
57636;DHT22;43465;50.728;4.160;2022-08-19T06:43:16;20.10;99.90
57636;DHT22;43465;50.728;4.160;2022-08-19T06:45:41;20.10;99.90
57636;DHT22;43465;50.728;4.160;2022-08-19T06:48:07;20.20;99.90
57636;DHT22;43465;50.728;4.160;2022-08-19T06:50:33;20.30;99.90
57636;DHT22;43465;50.728;4.160;2022-08-19T06:52:58;20.40;99.90
57636;DHT22;43465;50.728;4.160;2022-08-19T06:55:24;20.40;99.90
57636;DHT22;43465;50.728;4.160;2022-08-19T06:57:50;20.50;99.90
57636;DHT22;43465;50.728;4.160;2022-08-19T07:00:18;20.50;99.90
57636;DHT22;43465;50.728;4.160;2022-08-19T07:02:44;20.50;99.90
57636;DHT22;43465;50.728;4.160;2022-08-19T07:05:10;20.60;99.90
57636;DHT22;43465;50.728;4.160;2022-08-19T07:07:35;20.70;99.90
57636;DHT22;43465;50.728;4.160;2022-08-19T07:10:02;20.70;99.90
57636;DHT22;43465;50.728;4.160;2022-08-19T07:12:29;20.80;99.90
57636;DHT22;43465;50.728;4.160;2022-08-19T07:14:58;20.80;99.90
57636;DHT22;43465;50.728;4.160;2022-08-19T07:17:24;20.80;99.90
57636;DHT22;43465;50.728;4.160;2022-08-19T07:19:50;20.90;99.90
57636;DHT22;43465;50.728;4.160;2022-08-19T07:22:16;21.00;99.90
57636;DHT22;43465;50.728;4.160;2022-08-19T07:24:43;21.00;99.90
57636;DHT22;43465;50.728;4.160;2022-08-19T07:27:08;21.10;99.90
57636;DHT22;43465;50.728;4.160;2022-08-19T07:29:36;21.30;99.90
57636;DHT22;43465;50.728;4.160;2022-08-19T07:32:03;21.40;99.90
57636;DHT22;43465;50.728;4.160;2022-08-19T07:34:30;21.30;99.90
57636;DHT22;43465;50.728;4.160;2022-08-19T07:36:59;21.40;99.90
57636;DHT22;43465;50.728;4.160;2022-08-19T07:39:28;21.40;99.90
57636;DHT22;43465;50.728;4.160;2022-08-19T07:41:55;21.40;99.90
57636;DHT22;43465;50.728;4.160;2022-08-19T07:44:22;21.40;99.90
57636;DHT22;43465;50.728;4.160;2022-08-19T07:46:51;21.40;99.90
57636;DHT22;43465;50.728;4.160;2022-08-19T07:49:18;21.30;99.90
57636;DHT22;43465;50.728;4.160;2022-08-19T07:51:56;21.30;99.90
57636;DHT22;43465;50.728;4.160;2022-08-19T07:54:25;21.30;99.90
57636;DHT22;43465;50.728;4.160;2022-08-19T07:56:51;21.40;99.90
57636;DHT22;43465;50.728;4.160;2022-08-19T07:59:18;21.40;99.90
57636;DHT22;43465;50.728;4.160;2022-08-19T08:01:45;21.50;99.90
57636;DHT22;43465;50.728;4.160;2022-08-19T08:04:10;21.50;99.90
57636;DHT22;43465;50.728;4.160;2022-08-19T08:06:54;21.60;99.90
57636;DHT22;43465;50.728;4.160;2022-08-19T08:09:42;21.70;99.90
57636;DHT22;43465;50.728;4.160;2022-08-19T08:12:15;21.70;99.90
57636;DHT22;43465;50.728;4.160;2022-08-19T08:14:53;21.80;99.90
57636;DHT22;43465;50.728;4.160;2022-08-19T08:17:22;21.90;99.90
57636;DHT22;43465;50.728;4.160;2022-08-19T08:19:48;22.00;99.90
57636;DHT22;43465;50.728;4.160;2022-08-19T08:22:18;22.00;99.90
57636;DHT22;43465;50.728;4.160;2022-08-19T08:25:05;22.10;99.90
57636;DHT22;43465;50.728;4.160;2022-08-19T08:27:31;22.10;99.90
57636;DHT22;43465;50.728;4.160;2022-08-19T08:30:00;22.10;99.90
57636;DHT22;43465;50.728;4.160;2022-08-19T08:32:26;22.10;99.90
57636;DHT22;43465;50.728;4.160;2022-08-19T08:34:52;22.20;99.90
57636;DHT22;43465;50.728;4.160;2022-08-19T08:37:17;22.20;99.90
57636;DHT22;43465;50.728;4.160;2022-08-19T08:39:43;22.30;99.90
57636;DHT22;43465;50.728;4.160;2022-08-19T08:42:23;22.40;99.90
57636;DHT22;43465;50.728;4.160;2022-08-19T08:45:03;22.40;99.90
57636;DHT22;43465;50.728;4.160;2022-08-19T08:47:35;22.30;99.90
57636;DHT22;43465;50.728;4.160;2022-08-19T08:50:06;22.40;99.90
57636;DHT22;43465;50.728;4.160;2022-08-19T08:52:37;22.40;99.90
57636;DHT22;43465;50.728;4.160;2022-08-19T08:55:11;22.30;99.90
57636;DHT22;43465;50.728;4.160;2022-08-19T09:00:23;22.40;99.90
57636;DHT22;43465;50.728;4.160;2022-08-19T09:02:50;22.50;99.90
57636;DHT22;43465;50.728;4.160;2022-08-19T09:05:16;22.50;99.90
57636;DHT22;43465;50.728;4.160;2022-08-19T09:08:03;22.60;99.90
57636;DHT22;43465;50.728;4.160;2022-08-19T09:15:37;22.50;99.90
57636;DHT22;43465;50.728;4.160;2022-08-19T09:18:04;22.60;99.90
57636;DHT22;43465;50.728;4.160;2022-08-19T09:20:32;22.60;99.90
57636;DHT22;43465;50.728;4.160;2022-08-19T09:22:57;22.50;99.90
57636;DHT22;43465;50.728;4.160;2022-08-19T09:25:24;22.50;99.90
57636;DHT22;43465;50.728;4.160;2022-08-19T09:27:51;22.60;99.90
57636;DHT22;43465;50.728;4.160;2022-08-19T09:30:27;22.60;99.90
57636;DHT22;43465;50.728;4.160;2022-08-19T09:32:54;22.60;99.90
57636;DHT22;43465;50.728;4.160;2022-08-19T09:35:22;22.60;99.90
57636;DHT22;43465;50.728;4.160;2022-08-19T09:37:49;22.60;99.90
57636;DHT22;43465;50.728;4.160;2022-08-19T09:40:15;22.60;99.90
57636;DHT22;43465;50.728;4.160;2022-08-19T09:42:43;22.50;99.90
57636;DHT22;43465;50.728;4.160;2022-08-19T09:45:09;22.40;99.90
57636;DHT22;43465;50.728;4.160;2022-08-19T09:47:36;22.50;99.90
57636;DHT22;43465;50.728;4.160;2022-08-19T09:50:08;22.40;99.90
57636;DHT22;43465;50.728;4.160;2022-08-19T09:52:34;22.60;99.90
57636;DHT22;43465;50.728;4.160;2022-08-19T09:55:05;22.60;99.90
57636;DHT22;43465;50.728;4.160;2022-08-19T09:57:31;22.60;99.90
57636;DHT22;43465;50.728;4.160;2022-08-19T09:59:57;22.70;99.90
57636;DHT22;43465;50.728;4.160;2022-08-19T10:02:23;22.70;99.90
57636;DHT22;43465;50.728;4.160;2022-08-19T10:04:50;22.80;99.90
57636;DHT22;43465;50.728;4.160;2022-08-19T10:07:34;22.90;99.90
57636;DHT22;43465;50.728;4.160;2022-08-19T10:10:01;23.10;99.90
57636;DHT22;43465;50.728;4.160;2022-08-19T10:12:26;23.20;99.90
57636;DHT22;43465;50.728;4.160;2022-08-19T10:14:52;23.30;99.90
57636;DHT22;43465;50.728;4.160;2022-08-19T10:17:20;23.20;99.90
57636;DHT22;43465;50.728;4.160;2022-08-19T10:19:46;23.20;99.90
57636;DHT22;43465;50.728;4.160;2022-08-19T10:22:12;23.20;99.90
57636;DHT22;43465;50.728;4.160;2022-08-19T10:24:40;23.10;99.90
57636;DHT22;43465;50.728;4.160;2022-08-19T10:27:06;23.10;99.90
57636;DHT22;43465;50.728;4.160;2022-08-19T10:29:32;23.10;99.90
57636;DHT22;43465;50.728;4.160;2022-08-19T10:32:00;23.20;99.90
57636;DHT22;43465;50.728;4.160;2022-08-19T10:34:27;23.20;99.90
57636;DHT22;43465;50.728;4.160;2022-08-19T10:36:53;23.20;99.90
57636;DHT22;43465;50.728;4.160;2022-08-19T10:39:19;23.30;99.90
57636;DHT22;43465;50.728;4.160;2022-08-19T10:41:45;23.40;99.90
57636;DHT22;43465;50.728;4.160;2022-08-19T10:44:12;23.30;99.90
57636;DHT22;43465;50.728;4.160;2022-08-19T10:46:42;23.40;99.90
57636;DHT22;43465;50.728;4.160;2022-08-19T10:49:11;23.40;99.90
57636;DHT22;43465;50.728;4.160;2022-08-19T10:51:38;23.50;99.90
57636;DHT22;43465;50.728;4.160;2022-08-19T10:54:23;23.40;99.90
57636;DHT22;43465;50.728;4.160;2022-08-19T10:56:50;23.40;99.90
57636;DHT22;43465;50.728;4.160;2022-08-19T10:59:18;23.40;99.90
57636;DHT22;43465;50.728;4.160;2022-08-19T11:01:45;23.40;99.90
57636;DHT22;43465;50.728;4.160;2022-08-19T11:04:12;23.40;99.90
57636;DHT22;43465;50.728;4.160;2022-08-19T11:06:39;23.50;99.90
57636;DHT22;43465;50.728;4.160;2022-08-19T11:09:06;23.60;99.90
57636;DHT22;43465;50.728;4.160;2022-08-19T11:11:33;23.60;99.90
57636;DHT22;43465;50.728;4.160;2022-08-19T11:14:04;23.60;99.90
57636;DHT22;43465;50.728;4.160;2022-08-19T11:16:30;23.70;99.90
57636;DHT22;43465;50.728;4.160;2022-08-19T11:18:58;23.80;99.90
57636;DHT22;43465;50.728;4.160;2022-08-19T11:21:26;23.90;99.90
57636;DHT22;43465;50.728;4.160;2022-08-19T11:23:57;24.00;99.90
57636;DHT22;43465;50.728;4.160;2022-08-19T11:26:25;24.00;99.90
57636;DHT22;43465;50.728;4.160;2022-08-19T11:28:51;24.10;99.90
57636;DHT22;43465;50.728;4.160;2022-08-19T11:31:22;24.20;99.90
57636;DHT22;43465;50.728;4.160;2022-08-19T11:33:47;24.50;99.90
57636;DHT22;43465;50.728;4.160;2022-08-19T11:36:17;24.70;99.90
57636;DHT22;43465;50.728;4.160;2022-08-19T11:38:50;24.90;99.90
57636;DHT22;43465;50.728;4.160;2022-08-19T11:41:18;25.00;99.90
57636;DHT22;43465;50.728;4.160;2022-08-19T11:43:44;25.20;99.90
57636;DHT22;43465;50.728;4.160;2022-08-19T11:46:11;25.20;99.90
57636;DHT22;43465;50.728;4.160;2022-08-19T11:48:38;25.30;99.90
57636;DHT22;43465;50.728;4.160;2022-08-19T11:51:10;25.20;99.90
57636;DHT22;43465;50.728;4.160;2022-08-19T11:53:37;25.20;99.90
57636;DHT22;43465;50.728;4.160;2022-08-19T11:56:04;25.10;99.90
57636;DHT22;43465;50.728;4.160;2022-08-19T11:58:30;25.00;99.90
57636;DHT22;43465;50.728;4.160;2022-08-19T12:00:56;25.10;99.90
57636;DHT22;43465;50.728;4.160;2022-08-19T12:03:22;25.00;99.90
57636;DHT22;43465;50.728;4.160;2022-08-19T12:05:47;25.00;99.90
57636;DHT22;43465;50.728;4.160;2022-08-19T12:08:13;25.00;99.90
57636;DHT22;43465;50.728;4.160;2022-08-19T12:10:41;25.10;99.90
57636;DHT22;43465;50.728;4.160;2022-08-19T12:13:08;25.10;99.90
57636;DHT22;43465;50.728;4.160;2022-08-19T12:15:38;25.10;99.90
57636;DHT22;43465;50.728;4.160;2022-08-19T12:18:06;25.20;99.90
57636;DHT22;43465;50.728;4.160;2022-08-19T12:20:37;25.30;99.90
57636;DHT22;43465;50.728;4.160;2022-08-19T12:23:07;25.50;99.90
57636;DHT22;43465;50.728;4.160;2022-08-19T12:25:34;25.50;99.90
57636;DHT22;43465;50.728;4.160;2022-08-19T12:28:00;25.60;99.90
57636;DHT22;43465;50.728;4.160;2022-08-19T12:30:26;25.60;99.90
57636;DHT22;43465;50.728;4.160;2022-08-19T12:32:52;25.60;99.90
57636;DHT22;43465;50.728;4.160;2022-08-19T12:35:18;25.60;99.90
57636;DHT22;43465;50.728;4.160;2022-08-19T12:37:46;25.50;99.90
57636;DHT22;43465;50.728;4.160;2022-08-19T12:40:12;25.50;99.90
57636;DHT22;43465;50.728;4.160;2022-08-19T12:42:39;25.50;99.90
57636;DHT22;43465;50.728;4.160;2022-08-19T12:45:12;25.60;99.90
57636;DHT22;43465;50.728;4.160;2022-08-19T12:47:39;25.60;99.90
57636;DHT22;43465;50.728;4.160;2022-08-19T12:50:06;25.70;99.90
57636;DHT22;43465;50.728;4.160;2022-08-19T12:52:35;25.80;99.90
57636;DHT22;43465;50.728;4.160;2022-08-19T12:55:07;25.80;99.90
57636;DHT22;43465;50.728;4.160;2022-08-19T12:57:33;25.90;99.90
57636;DHT22;43465;50.728;4.160;2022-08-19T13:00:14;25.90;99.90
57636;DHT22;43465;50.728;4.160;2022-08-19T13:02:42;26.00;99.90
57636;DHT22;43465;50.728;4.160;2022-08-19T13:05:12;26.00;99.90
57636;DHT22;43465;50.728;4.160;2022-08-19T13:07:39;26.00;99.90
57636;DHT22;43465;50.728;4.160;2022-08-19T13:10:07;26.10;99.80
57636;DHT22;43465;50.728;4.160;2022-08-19T13:12:33;26.10;99.40
57636;DHT22;43465;50.728;4.160;2022-08-19T13:14:58;26.10;99.50
57636;DHT22;43465;50.728;4.160;2022-08-19T13:17:24;26.20;99.70
57636;DHT22;43465;50.728;4.160;2022-08-19T13:19:50;26.20;99.90
57636;DHT22;43465;50.728;4.160;2022-08-19T13:22:16;26.20;99.10
57636;DHT22;43465;50.728;4.160;2022-08-19T13:24:42;26.20;99.10
57636;DHT22;43465;50.728;4.160;2022-08-19T13:27:08;26.20;98.90
57636;DHT22;43465;50.728;4.160;2022-08-19T13:29:33;26.20;99.40
57636;DHT22;43465;50.728;4.160;2022-08-19T13:32:17;26.20;99.90
57636;DHT22;43465;50.728;4.160;2022-08-19T13:35:02;26.10;99.90
57636;DHT22;43465;50.728;4.160;2022-08-19T13:37:28;26.00;99.90
57636;DHT22;43465;50.728;4.160;2022-08-19T13:40:09;25.90;99.90
57636;DHT22;43465;50.728;4.160;2022-08-19T13:42:41;25.70;99.90
57636;DHT22;43465;50.728;4.160;2022-08-19T13:45:07;25.60;99.90
57636;DHT22;43465;50.728;4.160;2022-08-19T13:47:34;25.30;99.90
57636;DHT22;43465;50.728;4.160;2022-08-19T13:50:03;25.10;99.90
57636;DHT22;43465;50.728;4.160;2022-08-19T13:52:29;24.90;99.90
57636;DHT22;43465;50.728;4.160;2022-08-19T13:54:55;24.70;99.90
57636;DHT22;43465;50.728;4.160;2022-08-19T13:57:21;24.50;99.90
57636;DHT22;43465;50.728;4.160;2022-08-19T13:59:47;24.40;99.90
57636;DHT22;43465;50.728;4.160;2022-08-19T14:02:13;24.20;99.90
57636;DHT22;43465;50.728;4.160;2022-08-19T14:04:38;24.20;99.90
57636;DHT22;43465;50.728;4.160;2022-08-19T14:07:04;24.20;99.90
57636;DHT22;43465;50.728;4.160;2022-08-19T14:09:30;24.20;99.90
57636;DHT22;43465;50.728;4.160;2022-08-19T14:11:56;24.20;99.90
57636;DHT22;43465;50.728;4.160;2022-08-19T14:14:21;24.20;99.90
57636;DHT22;43465;50.728;4.160;2022-08-19T14:16:47;24.20;99.90
57636;DHT22;43465;50.728;4.160;2022-08-19T14:19:13;24.40;99.90
57636;DHT22;43465;50.728;4.160;2022-08-19T14:21:39;24.60;99.90
57636;DHT22;43465;50.728;4.160;2022-08-19T14:24:06;25.20;99.90
57636;DHT22;43465;50.728;4.160;2022-08-19T14:26:32;25.90;99.90
57636;DHT22;43465;50.728;4.160;2022-08-19T14:28:58;26.50;99.90
57636;DHT22;43465;50.728;4.160;2022-08-19T14:31:24;26.80;99.90
57636;DHT22;43465;50.728;4.160;2022-08-19T14:33:50;26.80;99.90
57636;DHT22;43465;50.728;4.160;2022-08-19T14:36:17;26.70;99.90
57636;DHT22;43465;50.728;4.160;2022-08-19T14:38:43;26.50;99.90
57636;DHT22;43465;50.728;4.160;2022-08-19T14:41:22;26.50;99.90
57636;DHT22;43465;50.728;4.160;2022-08-19T14:43:50;26.40;99.90
57636;DHT22;43465;50.728;4.160;2022-08-19T14:46:18;26.20;99.90
57636;DHT22;43465;50.728;4.160;2022-08-19T14:48:48;26.00;99.90
57636;DHT22;43465;50.728;4.160;2022-08-19T14:51:15;25.90;99.90
57636;DHT22;43465;50.728;4.160;2022-08-19T14:53:41;25.70;99.90
57636;DHT22;43465;50.728;4.160;2022-08-19T14:56:13;25.50;99.90
57636;DHT22;43465;50.728;4.160;2022-08-19T14:58:42;25.50;99.90
57636;DHT22;43465;50.728;4.160;2022-08-19T15:01:09;25.40;99.90
57636;DHT22;43465;50.728;4.160;2022-08-19T15:03:36;25.30;99.90
57636;DHT22;43465;50.728;4.160;2022-08-19T15:06:05;25.30;99.90
57636;DHT22;43465;50.728;4.160;2022-08-19T15:08:32;25.40;99.90
57636;DHT22;43465;50.728;4.160;2022-08-19T15:10:59;25.40;99.90
57636;DHT22;43465;50.728;4.160;2022-08-19T15:13:26;25.50;99.90
57636;DHT22;43465;50.728;4.160;2022-08-19T15:15:52;25.80;99.90
57636;DHT22;43465;50.728;4.160;2022-08-19T15:18:19;25.90;99.90
57636;DHT22;43465;50.728;4.160;2022-08-19T15:20:46;26.00;99.90
57636;DHT22;43465;50.728;4.160;2022-08-19T15:23:16;26.00;99.90
57636;DHT22;43465;50.728;4.160;2022-08-19T15:25:42;26.00;99.90
57636;DHT22;43465;50.728;4.160;2022-08-19T15:28:09;26.00;99.90
57636;DHT22;43465;50.728;4.160;2022-08-19T15:30:37;26.00;99.90
57636;DHT22;43465;50.728;4.160;2022-08-19T15:33:04;26.00;99.90
57636;DHT22;43465;50.728;4.160;2022-08-19T15:35:30;26.00;99.90
57636;DHT22;43465;50.728;4.160;2022-08-19T15:37:56;26.00;99.90
57636;DHT22;43465;50.728;4.160;2022-08-19T15:40:23;26.10;99.90
57636;DHT22;43465;50.728;4.160;2022-08-19T15:42:49;26.10;99.90
57636;DHT22;43465;50.728;4.160;2022-08-19T15:45:17;26.10;99.90
57636;DHT22;43465;50.728;4.160;2022-08-19T15:47:43;26.10;99.90
57636;DHT22;43465;50.728;4.160;2022-08-19T15:50:16;26.20;99.90